createdAt,value
2023-03-31T00:01:41.962Z,9.27
2023-03-31T00:04:13.766Z,9.29
2023-03-31T00:06:43.314Z,9.25
2023-03-31T00:09:16.140Z,9.20
2023-03-31T00:11:46.418Z,9.13
2023-03-31T00:14:17.986Z,9.06
2023-03-31T00:16:47.142Z,9.00
2023-03-31T00:19:20.158Z,8.95
2023-03-31T00:21:49.267Z,8.94
2023-03-31T00:24:18.770Z,8.92
2023-03-31T00:26:47.785Z,8.89
2023-03-31T00:29:16.733Z,8.82
2023-03-31T00:31:45.999Z,8.75
2023-03-31T00:34:15.191Z,8.72
2023-03-31T00:36:50.195Z,8.73
2023-03-31T00:39:19.711Z,8.74
2023-03-31T00:41:49.032Z,8.75
2023-03-31T00:44:22.996Z,8.70
2023-03-31T00:47:20.274Z,8.66
2023-03-31T00:49:54.580Z,8.62
2023-03-31T00:52:28.081Z,8.55
2023-03-31T00:55:04.051Z,8.48
2023-03-31T00:57:39.322Z,8.45
2023-03-31T01:00:17.073Z,8.44
2023-03-31T01:02:59.841Z,8.41
2023-03-31T01:05:39.220Z,8.35
2023-03-31T01:08:09.353Z,8.28
2023-03-31T01:10:43.461Z,8.30
2023-03-31T01:13:15.528Z,8.31
2023-03-31T01:15:44.844Z,8.32
2023-03-31T01:18:16.477Z,8.25
2023-03-31T01:21:18.886Z,8.22
2023-03-31T01:24:25.420Z,8.15
2023-03-31T01:27:08.727Z,8.06
2023-03-31T01:29:57.166Z,8.00
2023-03-31T01:32:54.132Z,7.98
2023-03-31T01:35:47.581Z,7.94
2023-03-31T01:38:25.864Z,7.94
2023-03-31T01:41:17.524Z,7.95
2023-03-31T01:44:38.431Z,7.91
2023-03-31T01:47:18.429Z,7.88
2023-03-31T01:50:02.866Z,7.88
2023-03-31T01:52:44.095Z,7.84
2023-03-31T01:55:21.021Z,7.81
2023-03-31T01:58:05.094Z,7.80
2023-03-31T02:00:42.139Z,7.85
2023-03-31T02:03:35.577Z,7.88
2023-03-31T02:06:14.667Z,7.86
2023-03-31T02:09:01.252Z,7.84
2023-03-31T02:11:33.528Z,7.82
2023-03-31T02:14:05.214Z,7.81
2023-03-31T02:16:42.021Z,7.81
2023-03-31T02:19:14.091Z,7.86
2023-03-31T02:21:43.189Z,7.86
2023-03-31T02:24:14.667Z,7.77
2023-03-31T02:26:52.262Z,7.75
2023-03-31T02:29:21.911Z,7.72
2023-03-31T02:32:05.088Z,7.68
2023-03-31T02:34:34.078Z,7.71
2023-03-31T02:37:03.293Z,7.74
2023-03-31T02:39:35.721Z,7.79
2023-03-31T02:42:07.648Z,7.78
2023-03-31T02:44:39.023Z,7.85
2023-03-31T02:47:11.680Z,7.93
2023-03-31T02:49:46.094Z,7.95
2023-03-31T02:52:30.446Z,7.98
2023-03-31T02:55:23.982Z,8.04
2023-03-31T02:58:05.304Z,8.11
2023-03-31T03:00:46.409Z,8.14
2023-03-31T03:03:36.907Z,8.14
2023-03-31T03:06:14.608Z,8.14
2023-03-31T03:09:06.474Z,8.17
2023-03-31T03:12:08.474Z,8.24
2023-03-31T03:14:53.574Z,8.28
2023-03-31T03:17:28.721Z,8.32
2023-03-31T03:20:01.349Z,8.38
2023-03-31T03:22:30.441Z,8.38
2023-03-31T03:24:59.517Z,8.35
2023-03-31T03:27:28.578Z,8.35
2023-03-31T03:29:57.606Z,8.36
2023-03-31T03:32:26.604Z,8.38
2023-03-31T03:34:55.488Z,8.45
2023-03-31T03:37:24.432Z,8.49
2023-03-31T03:39:53.549Z,8.52
2023-03-31T03:42:22.536Z,8.55
2023-03-31T03:44:51.446Z,8.54
2023-03-31T03:47:20.544Z,8.52
2023-03-31T03:49:49.521Z,8.49
2023-03-31T03:52:18.534Z,8.53
2023-03-31T03:54:47.520Z,8.56
2023-03-31T03:57:16.892Z,8.62
2023-03-31T03:59:46.127Z,8.67
2023-03-31T04:02:15.170Z,8.68
2023-03-31T04:04:44.285Z,8.64
2023-03-31T04:07:13.319Z,8.66
2023-03-31T04:09:42.246Z,8.66
2023-03-31T04:12:11.225Z,8.70
2023-03-31T04:14:40.203Z,8.72
2023-03-31T04:17:10.785Z,8.76
2023-03-31T04:19:42.320Z,8.77
2023-03-31T04:22:15.602Z,8.75
2023-03-31T04:24:46.698Z,8.74
2023-03-31T04:27:17.406Z,8.73
2023-03-31T04:29:54.858Z,8.75
2023-03-31T04:32:24.154Z,8.77
2023-03-31T04:35:02.654Z,8.80
2023-03-31T04:37:35.033Z,8.84
2023-03-31T04:40:08.144Z,8.83
2023-03-31T04:42:37.419Z,8.85
2023-03-31T04:45:06.755Z,8.83
2023-03-31T04:47:35.736Z,8.78
2023-03-31T04:50:05.361Z,8.79
2023-03-31T04:52:34.359Z,8.82
2023-03-31T04:55:03.782Z,8.82
2023-03-31T04:57:32.836Z,8.84
2023-03-31T05:00:01.861Z,8.82
2023-03-31T05:02:31.155Z,8.81
2023-03-31T05:05:00.176Z,8.77
2023-03-31T05:07:29.118Z,8.75
2023-03-31T05:09:58.005Z,8.76
2023-03-31T05:12:27.165Z,8.79
2023-03-31T05:14:56.158Z,8.86
2023-03-31T05:17:25.148Z,8.91
2023-03-31T05:19:54.098Z,8.94
2023-03-31T05:22:23.055Z,8.98
2023-03-31T05:24:51.968Z,8.98
2023-03-31T05:27:23.612Z,8.97
2023-03-31T05:29:52.707Z,8.98
2023-03-31T05:32:21.762Z,9.00
2023-03-31T05:34:52.771Z,9.05
2023-03-31T05:37:21.707Z,9.07
2023-03-31T05:39:51.558Z,9.10
2023-03-31T05:42:21.371Z,9.15
2023-03-31T05:44:50.679Z,9.17
2023-03-31T05:47:19.677Z,9.16
2023-03-31T05:49:48.791Z,9.20
2023-03-31T05:52:17.792Z,9.20
2023-03-31T05:54:46.717Z,9.21
2023-03-31T05:57:15.711Z,9.20
2023-03-31T05:59:44.764Z,9.20
2023-03-31T06:02:16.090Z,9.20
2023-03-31T06:04:45.595Z,9.21
2023-03-31T06:07:15.100Z,9.25
2023-03-31T06:09:44.027Z,9.32
2023-03-31T06:12:12.996Z,9.40
2023-03-31T06:14:41.924Z,9.44
2023-03-31T06:17:10.890Z,9.41
2023-03-31T06:19:40.377Z,9.39
2023-03-31T06:22:09.437Z,9.41
2023-03-31T06:24:38.358Z,9.44
2023-03-31T06:27:07.381Z,9.47
2023-03-31T06:29:36.320Z,9.52
2023-03-31T06:32:05.349Z,9.58
2023-03-31T06:34:34.336Z,9.62
2023-03-31T06:37:03.356Z,9.66
2023-03-31T06:39:32.357Z,9.71
2023-03-31T06:42:01.275Z,9.78
2023-03-31T06:44:30.457Z,9.87
2023-03-31T06:46:59.337Z,9.93
2023-03-31T06:49:28.227Z,10.01
2023-03-31T06:51:57.087Z,10.06
2023-03-31T06:54:26.144Z,10.12
2023-03-31T06:56:55.046Z,10.20
2023-03-31T06:59:23.989Z,10.26
2023-03-31T07:01:53.078Z,10.33
2023-03-31T07:04:22.123Z,10.35
2023-03-31T07:06:51.639Z,10.42
2023-03-31T07:09:23.370Z,10.45
2023-03-31T07:11:52.315Z,10.48
2023-03-31T07:14:22.821Z,10.55
2023-03-31T07:16:51.928Z,10.63
2023-03-31T07:19:21.083Z,10.68
2023-03-31T07:21:50.487Z,10.73
2023-03-31T07:24:19.507Z,10.76
2023-03-31T07:26:48.804Z,10.80
2023-03-31T07:29:17.880Z,10.85
2023-03-31T07:31:48.140Z,10.91
2023-03-31T07:34:17.401Z,10.99
2023-03-31T07:36:46.474Z,11.07
2023-03-31T07:39:15.703Z,11.13
2023-03-31T07:41:44.606Z,11.17
2023-03-31T07:44:13.529Z,11.19
2023-03-31T07:46:42.540Z,11.26
2023-03-31T07:49:16.133Z,11.30
2023-03-31T07:51:45.199Z,11.37
2023-03-31T07:54:14.191Z,11.43
2023-03-31T07:56:43.234Z,11.60
2023-03-31T07:59:12.416Z,11.75
2023-03-31T08:01:41.467Z,11.89
2023-03-31T08:04:12.582Z,11.92
2023-03-31T08:06:41.633Z,11.94
2023-03-31T08:09:10.833Z,11.97
2023-03-31T08:11:39.834Z,11.97
2023-03-31T08:14:09.109Z,11.93
2023-03-31T08:16:38.066Z,11.95
2023-03-31T08:19:07.264Z,11.94
2023-03-31T08:21:36.206Z,11.94
2023-03-31T08:24:06.329Z,11.97
2023-03-31T08:26:35.370Z,12.00
2023-03-31T08:29:04.420Z,12.11
2023-03-31T08:31:33.478Z,12.21
2023-03-31T08:34:03.001Z,12.27
2023-03-31T08:36:32.128Z,12.50
2023-03-31T08:39:01.380Z,12.69
2023-03-31T08:41:37.626Z,12.74
2023-03-31T08:44:21.095Z,12.77
2023-03-31T08:46:53.015Z,12.76
2023-03-31T08:49:23.845Z,12.76
2023-03-31T08:52:04.643Z,12.84
2023-03-31T08:54:56.338Z,12.84
2023-03-31T08:57:37.002Z,12.84
2023-03-31T09:00:07.268Z,12.89
2023-03-31T09:02:48.971Z,13.01
2023-03-31T09:05:28.817Z,13.19
2023-03-31T09:08:09.952Z,13.38
2023-03-31T09:10:53.961Z,13.63
2023-03-31T09:13:55.888Z,13.74
2023-03-31T09:16:32.072Z,13.82
2023-03-31T09:19:02.755Z,13.91
2023-03-31T09:21:41.027Z,13.92
2023-03-31T09:24:21.186Z,14.02
2023-03-31T09:27:02.497Z,14.18
2023-03-31T09:29:51.890Z,14.40
2023-03-31T09:32:27.980Z,14.48
2023-03-31T09:35:01.788Z,14.56
2023-03-31T09:37:33.456Z,14.73
2023-03-31T09:40:08.191Z,14.82
2023-03-31T09:42:38.355Z,15.03
2023-03-31T09:45:17.570Z,15.13
2023-03-31T09:47:52.299Z,15.16
2023-03-31T09:50:25.117Z,15.12
2023-03-31T09:53:00.859Z,15.22
2023-03-31T09:55:43.392Z,15.25
2023-03-31T09:58:15.282Z,15.16
2023-03-31T10:01:07.003Z,15.00
2023-03-31T10:03:50.040Z,14.77
2023-03-31T10:06:20.252Z,14.66
2023-03-31T10:08:56.234Z,14.64
2023-03-31T10:11:27.425Z,14.59
2023-03-31T10:14:01.578Z,14.47
2023-03-31T10:16:54.743Z,14.40
2023-03-31T10:19:27.060Z,14.34
2023-03-31T10:22:15.484Z,14.34
2023-03-31T10:24:46.337Z,14.33
2023-03-31T10:27:23.600Z,14.38
2023-03-31T10:29:55.404Z,14.52
2023-03-31T10:32:38.347Z,14.62
2023-03-31T10:35:22.852Z,14.72
2023-03-31T10:37:56.974Z,14.79
2023-03-31T10:40:29.219Z,14.99
2023-03-31T10:43:02.533Z,15.35
2023-03-31T10:45:38.622Z,15.63
2023-03-31T10:48:39.143Z,16.03
2023-03-31T10:51:14.263Z,16.12
2023-03-31T10:53:47.051Z,15.84
2023-03-31T10:56:43.641Z,15.87
2023-03-31T10:59:43.875Z,15.72
2023-03-31T11:02:50.223Z,15.53
2023-03-31T11:05:52.612Z,15.72
2023-03-31T11:08:42.073Z,15.72
2023-03-31T11:11:30.171Z,15.55
2023-03-31T11:14:20.766Z,15.55
2023-03-31T11:16:58.840Z,15.67
2023-03-31T11:19:32.092Z,15.59
2023-03-31T11:22:21.699Z,15.45
2023-03-31T11:25:09.343Z,15.40
2023-03-31T11:28:16.211Z,15.36
2023-03-31T11:31:00.506Z,15.37
2023-03-31T11:33:57.206Z,15.19
2023-03-31T11:37:01.322Z,14.93
2023-03-31T11:39:39.788Z,14.83
2023-03-31T11:42:33.478Z,14.80
2023-03-31T11:45:19.895Z,14.70
2023-03-31T11:47:54.126Z,14.56
2023-03-31T11:50:27.878Z,14.51
2023-03-31T11:53:02.438Z,14.37
2023-03-31T11:55:32.819Z,14.40
2023-03-31T11:58:11.435Z,14.39
2023-03-31T12:01:01.257Z,14.38
2023-03-31T12:03:38.427Z,14.35
2023-03-31T12:06:17.591Z,14.36
2023-03-31T12:09:12.734Z,14.38
2023-03-31T12:12:05.931Z,14.35
2023-03-31T12:14:43.796Z,14.19
2023-03-31T12:17:16.275Z,14.03
2023-03-31T12:19:45.101Z,13.80
2023-03-31T12:22:24.184Z,13.67
2023-03-31T12:24:53.442Z,13.59
2023-03-31T12:27:50.709Z,13.59
2023-03-31T12:30:34.686Z,13.53
2023-03-31T12:33:11.156Z,13.49
2023-03-31T12:36:08.873Z,13.40
2023-03-31T12:38:56.796Z,13.32
2023-03-31T12:41:37.982Z,13.36
2023-03-31T12:44:25.811Z,13.39
2023-03-31T12:47:17.720Z,13.43
2023-03-31T12:50:34.917Z,13.43
2023-03-31T12:53:30.409Z,13.35
2023-03-31T12:56:00.131Z,13.33
2023-03-31T12:58:34.248Z,13.36
2023-03-31T13:01:08.389Z,13.40
2023-03-31T13:03:52.820Z,13.52
2023-03-31T13:06:27.830Z,13.60
2023-03-31T13:09:08.921Z,13.67
2023-03-31T13:11:41.393Z,13.76
2023-03-31T13:14:22.368Z,13.90
2023-03-31T13:16:56.302Z,13.97
2023-03-31T13:19:34.193Z,14.02
2023-03-31T13:22:05.500Z,14.01
2023-03-31T13:24:35.044Z,13.95
2023-03-31T13:27:30.227Z,14.00
2023-03-31T13:29:59.220Z,14.12
2023-03-31T13:32:28.911Z,14.20
2023-03-31T13:34:58.089Z,14.29
2023-03-31T13:37:45.322Z,14.38
2023-03-31T13:40:20.222Z,14.30
2023-03-31T13:43:09.276Z,14.15
2023-03-31T13:45:47.227Z,14.07
2023-03-31T13:48:35.071Z,14.06
2023-03-31T13:51:19.648Z,14.11
2023-03-31T13:54:17.065Z,14.11
2023-03-31T13:56:45.988Z,14.16
2023-03-31T13:59:58.885Z,14.17
2023-03-31T14:02:48.565Z,14.15
2023-03-31T14:05:24.863Z,14.17
2023-03-31T14:07:58.071Z,14.13
2023-03-31T14:10:33.929Z,14.05
2023-03-31T14:13:12.677Z,14.05
2023-03-31T14:15:48.158Z,14.02
2023-03-31T14:18:25.449Z,13.97
2023-03-31T14:21:21.452Z,13.93
2023-03-31T14:24:32.660Z,13.85
2023-03-31T14:27:25.703Z,13.53
2023-03-31T14:29:54.704Z,13.04
2023-03-31T14:32:37.011Z,12.72
2023-03-31T14:35:13.953Z,12.45
2023-03-31T14:37:44.010Z,12.21
2023-03-31T14:40:17.610Z,11.98
2023-03-31T14:42:50.069Z,11.79
2023-03-31T14:45:31.728Z,11.67
2023-03-31T14:48:13.665Z,11.60
2023-03-31T14:50:45.684Z,11.58
2023-03-31T14:53:23.455Z,11.51
2023-03-31T14:55:59.667Z,11.47
2023-03-31T14:58:37.569Z,11.39
2023-03-31T15:01:09.093Z,11.31
2023-03-31T15:03:41.937Z,11.24
2023-03-31T15:06:12.975Z,11.14
2023-03-31T15:08:42.557Z,11.12
2023-03-31T15:11:19.645Z,11.10
2023-03-31T15:14:03.302Z,11.02
2023-03-31T15:16:42.332Z,10.94
2023-03-31T15:19:16.397Z,10.93
2023-03-31T15:21:46.363Z,10.96
2023-03-31T15:24:15.667Z,11.00
2023-03-31T15:27:08.707Z,11.14
2023-03-31T15:29:44.716Z,11.15
2023-03-31T15:32:18.443Z,11.12
2023-03-31T15:34:48.428Z,11.08
2023-03-31T15:37:27.961Z,11.18
2023-03-31T15:39:58.764Z,11.24
2023-03-31T15:42:29.140Z,11.28
2023-03-31T15:45:21.012Z,11.27
2023-03-31T15:47:55.450Z,11.22
2023-03-31T15:50:28.773Z,11.12
2023-03-31T15:53:01.606Z,11.09
2023-03-31T15:55:48.720Z,11.10
2023-03-31T15:58:17.713Z,11.08
2023-03-31T16:00:52.402Z,11.11
2023-03-31T16:03:29.190Z,11.12
2023-03-31T16:06:01.486Z,11.04
2023-03-31T16:08:42.903Z,10.95
2023-03-31T16:11:18.862Z,10.93
2023-03-31T16:13:54.281Z,10.96
2023-03-31T16:16:27.736Z,11.00
2023-03-31T16:19:10.480Z,11.03
2023-03-31T16:21:47.615Z,11.00
2023-03-31T16:24:17.079Z,11.00
2023-03-31T16:26:46.785Z,10.97
2023-03-31T16:29:22.759Z,10.91
2023-03-31T16:32:11.459Z,10.88
2023-03-31T16:34:57.160Z,10.84
2023-03-31T16:37:27.242Z,10.81
2023-03-31T16:39:57.517Z,10.81
2023-03-31T16:42:27.175Z,10.80
2023-03-31T16:45:12.713Z,10.76
2023-03-31T16:47:45.508Z,10.70
2023-03-31T16:50:15.837Z,10.66
2023-03-31T16:52:45.533Z,10.61
2023-03-31T16:55:14.751Z,10.60
2023-03-31T16:57:43.729Z,10.57
2023-03-31T17:00:13.324Z,10.56
2023-03-31T17:02:42.293Z,10.52
2023-03-31T17:05:13.844Z,10.46
2023-03-31T17:07:43.196Z,10.41
2023-03-31T17:10:12.943Z,10.38
2023-03-31T17:12:42.128Z,10.38
2023-03-31T17:15:11.462Z,10.36
2023-03-31T17:17:40.416Z,10.35
2023-03-31T17:20:10.684Z,10.32
2023-03-31T17:22:39.794Z,10.27
2023-03-31T17:25:09.671Z,10.23
2023-03-31T17:27:39.067Z,10.20
2023-03-31T17:30:09.164Z,10.17
2023-03-31T17:32:39.292Z,10.14
2023-03-31T17:35:10.423Z,10.18
2023-03-31T17:37:39.342Z,10.12
2023-03-31T17:40:09.840Z,10.06
2023-03-31T17:42:39.132Z,10.03
2023-03-31T17:45:09.001Z,10.04
2023-03-31T17:47:38.028Z,10.08
2023-03-31T17:50:08.906Z,10.11
2023-03-31T17:52:39.196Z,10.11
2023-03-31T17:55:09.055Z,10.17
2023-03-31T17:57:40.380Z,10.17
2023-03-31T18:00:10.219Z,10.11
2023-03-31T18:02:40.854Z,10.06
2023-03-31T18:05:11.084Z,10.01
2023-03-31T18:07:41.507Z,10.03
2023-03-31T18:10:10.537Z,10.08
2023-03-31T18:12:40.003Z,10.08
2023-03-31T18:15:11.023Z,10.02
2023-03-31T18:17:40.074Z,10.00
2023-03-31T18:20:10.017Z,9.99
2023-03-31T18:22:39.012Z,9.95
2023-03-31T18:25:09.371Z,9.95
2023-03-31T18:27:38.405Z,9.96
2023-03-31T18:30:08.236Z,10.04
2023-03-31T18:32:37.337Z,10.05
2023-03-31T18:35:07.468Z,10.13
2023-03-31T18:37:36.362Z,10.17
2023-03-31T18:40:06.385Z,10.10
2023-03-31T18:42:36.310Z,10.07
2023-03-31T18:45:05.911Z,10.04
2023-03-31T18:47:38.712Z,10.02
2023-03-31T18:50:09.376Z,10.04
2023-03-31T18:52:38.773Z,10.04
2023-03-31T18:55:08.289Z,10.05
2023-03-31T18:57:37.346Z,10.06
2023-03-31T19:00:07.889Z,10.06
2023-03-31T19:02:37.065Z,10.03
2023-03-31T19:05:06.904Z,10.02
2023-03-31T19:07:35.943Z,10.03
2023-03-31T19:10:06.479Z,10.13
2023-03-31T19:12:35.465Z,10.25
2023-03-31T19:15:05.145Z,10.25
2023-03-31T19:17:34.272Z,10.22
2023-03-31T19:20:05.288Z,10.20
2023-03-31T19:22:34.203Z,10.22
2023-03-31T19:25:03.800Z,10.25
2023-03-31T19:27:32.908Z,10.18
2023-03-31T19:30:02.000Z,10.08
2023-03-31T19:32:31.333Z,10.01
2023-03-31T19:35:00.416Z,9.93
2023-03-31T19:37:29.530Z,9.89
2023-03-31T19:39:58.539Z,9.93
2023-03-31T19:42:27.495Z,9.96
2023-03-31T19:44:56.423Z,9.97
2023-03-31T19:47:25.958Z,9.91
2023-03-31T19:49:55.199Z,9.86
2023-03-31T19:52:24.093Z,9.78
2023-03-31T19:54:53.294Z,9.72
2023-03-31T19:57:22.334Z,9.68
2023-03-31T19:59:51.393Z,9.73
2023-03-31T20:02:20.396Z,9.76
2023-03-31T20:04:49.519Z,9.74
2023-03-31T20:07:18.879Z,9.66
2023-03-31T20:09:47.797Z,9.64
2023-03-31T20:12:16.887Z,9.62
2023-03-31T20:14:45.778Z,9.62
2023-03-31T20:17:15.883Z,9.64
2023-03-31T20:19:45.237Z,9.65
2023-03-31T20:22:14.128Z,9.67
2023-03-31T20:24:43.100Z,9.62
2023-03-31T20:27:12.544Z,9.55
2023-03-31T20:29:41.958Z,9.51
2023-03-31T20:32:11.275Z,9.51
2023-03-31T20:34:40.256Z,9.53
2023-03-31T20:37:09.179Z,9.52
2023-03-31T20:39:38.643Z,9.49
2023-03-31T20:42:07.809Z,9.44
2023-03-31T20:44:37.060Z,9.37
2023-03-31T20:47:06.160Z,9.34
2023-03-31T20:49:35.139Z,9.34
2023-03-31T20:52:04.741Z,9.37
2023-03-31T20:54:33.728Z,9.36
2023-03-31T20:57:06.558Z,9.35
2023-03-31T20:59:35.530Z,9.31
2023-03-31T21:02:04.863Z,9.31
2023-03-31T21:04:34.325Z,9.30
2023-03-31T21:07:03.323Z,9.31
2023-03-31T21:09:33.142Z,9.31
2023-03-31T21:12:02.857Z,9.36
2023-03-31T21:14:32.300Z,9.33
2023-03-31T21:17:01.476Z,9.27
2023-03-31T21:19:31.913Z,9.24
2023-03-31T21:22:00.900Z,9.18
2023-03-31T21:24:29.895Z,9.18
2023-03-31T21:26:58.889Z,9.19
2023-03-31T21:29:27.788Z,9.20
2023-03-31T21:31:56.816Z,9.18
2023-03-31T21:34:25.781Z,9.25
2023-03-31T21:36:54.880Z,9.26
2023-03-31T21:39:23.777Z,9.24
2023-03-31T21:41:52.776Z,9.21
2023-03-31T21:44:21.974Z,9.22
2023-03-31T21:46:52.210Z,9.21
2023-03-31T21:49:21.196Z,9.23
2023-03-31T21:51:50.194Z,9.22
2023-03-31T21:54:19.197Z,9.24
2023-03-31T21:56:48.572Z,9.22
2023-03-31T21:59:23.022Z,9.27
2023-03-31T22:01:57.651Z,9.31
2023-03-31T22:04:26.971Z,9.31
2023-03-31T22:06:56.557Z,9.30
2023-03-31T22:09:25.656Z,9.28
2023-03-31T22:11:54.666Z,9.29
2023-03-31T22:14:23.588Z,9.31
2023-03-31T22:16:52.648Z,9.30
2023-03-31T22:19:22.302Z,9.36
2023-03-31T22:21:51.382Z,9.36
2023-03-31T22:24:20.675Z,9.30
2023-03-31T22:26:49.631Z,9.28
2023-03-31T22:29:18.759Z,9.22
2023-03-31T22:31:47.834Z,9.16
2023-03-31T22:34:19.640Z,9.13
2023-03-31T22:36:48.729Z,9.14
2023-03-31T22:39:18.329Z,9.17
2023-03-31T22:41:48.795Z,9.30
2023-03-31T22:44:18.060Z,9.33
2023-03-31T22:46:47.124Z,9.35
2023-03-31T22:49:16.712Z,9.32
2023-03-31T22:51:45.637Z,9.30
2023-03-31T22:54:16.650Z,9.35
2023-03-31T22:56:45.675Z,9.46
2023-03-31T22:59:14.991Z,9.48
2023-03-31T23:01:46.161Z,9.36
2023-03-31T23:04:15.093Z,9.23
2023-03-31T23:06:44.051Z,9.17
2023-03-31T23:09:13.386Z,9.14
2023-03-31T23:11:42.866Z,9.17
2023-03-31T23:14:12.946Z,9.19
2023-03-31T23:16:42.337Z,9.19
2023-03-31T23:19:12.418Z,9.16
2023-03-31T23:21:41.320Z,9.11
2023-03-31T23:24:11.337Z,9.08
2023-03-31T23:26:40.435Z,9.08
2023-03-31T23:29:09.532Z,9.07
2023-03-31T23:31:38.452Z,9.09
2023-03-31T23:34:07.544Z,9.10
2023-03-31T23:36:36.521Z,9.06
2023-03-31T23:39:06.952Z,9.03
2023-03-31T23:41:36.364Z,9.04
2023-03-31T23:44:06.411Z,9.02
2023-03-31T23:46:36.408Z,9.03
2023-03-31T23:49:05.361Z,9.06
2023-03-31T23:51:34.393Z,9.03
2023-03-31T23:54:03.602Z,9.02
2023-03-31T23:56:32.596Z,9.02
2023-03-31T23:59:01.692Z,8.99
